sensor_id;sensor_type;location;lat;lon;timestamp;pressure;altitude;pressure_sealevel;temperature;humidity
50592;BME280;36548;50.506;30.834;2023-03-23T00:00:26;100062.28;;;10.20;67.29
50592;BME280;36548;50.506;30.834;2023-03-23T00:01:35;100055.40;;;10.16;67.38
50592;BME280;36548;50.506;30.834;2023-03-23T00:02:44;100052.19;;;10.11;67.68
50592;BME280;36548;50.506;30.834;2023-03-23T00:03:54;100059.34;;;10.10;68.08
50592;BME280;36548;50.506;30.834;2023-03-23T00:05:06;100057.44;;;10.12;68.01
50592;BME280;36548;50.506;30.834;2023-03-23T00:06:16;100058.39;;;10.11;67.95
50592;BME280;36548;50.506;30.834;2023-03-23T00:07:25;100063.55;;;10.14;68.03
50592;BME280;36548;50.506;30.834;2023-03-23T00:08:37;100054.41;;;10.04;68.00
50592;BME280;36548;50.506;30.834;2023-03-23T00:09:48;100048.94;;;10.05;68.27
50592;BME280;36548;50.506;30.834;2023-03-23T00:10:59;100047.88;;;10.08;68.48
50592;BME280;36548;50.506;30.834;2023-03-23T00:12:09;100056.67;;;10.10;68.10
50592;BME280;36548;50.506;30.834;2023-03-23T00:13:19;100052.08;;;10.12;68.38
50592;BME280;36548;50.506;30.834;2023-03-23T00:14:28;100054.19;;;10.07;67.89
50592;BME280;36548;50.506;30.834;2023-03-23T00:15:36;100048.94;;;10.05;68.14
50592;BME280;36548;50.506;30.834;2023-03-23T00:16:46;100045.48;;;10.03;68.20
50592;BME280;36548;50.506;30.834;2023-03-23T00:17:55;100053.63;;;10.02;68.28
50592;BME280;36548;50.506;30.834;2023-03-23T00:19:11;100047.27;;;9.90;68.54
50592;BME280;36548;50.506;30.834;2023-03-23T00:20:17;100051.09;;;9.86;68.91
50592;BME280;36548;50.506;30.834;2023-03-23T00:21:28;100055.51;;;9.87;68.94
50592;BME280;36548;50.506;30.834;2023-03-23T00:22:46;100057.31;;;9.86;68.89
50592;BME280;36548;50.506;30.834;2023-03-23T00:23:54;100051.38;;;9.81;69.21
50592;BME280;36548;50.506;30.834;2023-03-23T00:25:04;100047.27;;;9.76;69.23
50592;BME280;36548;50.506;30.834;2023-03-23T00:26:14;100049.84;;;9.77;69.25
50592;BME280;36548;50.506;30.834;2023-03-23T00:27:23;100050.83;;;9.76;69.40
50592;BME280;36548;50.506;30.834;2023-03-23T00:28:32;100046.02;;;9.81;69.63
50592;BME280;36548;50.506;30.834;2023-03-23T00:29:41;100051.20;;;9.84;69.55
50592;BME280;36548;50.506;30.834;2023-03-23T00:30:56;100041.80;;;9.92;69.49
50592;BME280;36548;50.506;30.834;2023-03-23T00:32:05;100047.73;;;9.97;68.78
50592;BME280;36548;50.506;30.834;2023-03-23T00:33:13;100046.56;;;10.01;68.46
50592;BME280;36548;50.506;30.834;2023-03-23T00:34:25;100050.09;;;10.01;68.23
50592;BME280;36548;50.506;30.834;2023-03-23T00:35:34;100049.25;;;10.01;67.86
50592;BME280;36548;50.506;30.834;2023-03-23T00:36:47;100050.20;;;10.00;67.83
50592;BME280;36548;50.506;30.834;2023-03-23T00:37:56;100049.53;;;9.96;67.97
50592;BME280;36548;50.506;30.834;2023-03-23T00:39:08;100047.80;;;9.95;67.98
50592;BME280;36548;50.506;30.834;2023-03-23T00:40:17;100046.84;;;9.96;68.04
50592;BME280;36548;50.506;30.834;2023-03-23T00:41:27;100040.53;;;9.97;67.71
50592;BME280;36548;50.506;30.834;2023-03-23T00:42:36;100039.69;;;9.97;67.71
50592;BME280;36548;50.506;30.834;2023-03-23T00:43:46;100039.69;;;9.97;67.59
50592;BME280;36548;50.506;30.834;2023-03-23T00:44:57;100043.21;;;9.97;67.53
50592;BME280;36548;50.506;30.834;2023-03-23T00:46:07;100031.70;;;9.95;67.70
50592;BME280;36548;50.506;30.834;2023-03-23T00:47:17;100037.95;;;9.96;67.58
50592;BME280;36548;50.506;30.834;2023-03-23T00:48:27;100040.84;;;9.93;67.55
50592;BME280;36548;50.506;30.834;2023-03-23T00:49:36;100037.38;;;9.90;67.67
50592;BME280;36548;50.506;30.834;2023-03-23T00:50:45;100039.22;;;9.90;67.68
50592;BME280;36548;50.506;30.834;2023-03-23T00:51:57;100034.91;;;9.87;67.80
50592;BME280;36548;50.506;30.834;2023-03-23T00:53:07;100036.81;;;9.85;67.89
50592;BME280;36548;50.506;30.834;2023-03-23T00:54:15;100030.50;;;9.86;67.72
50592;BME280;36548;50.506;30.834;2023-03-23T00:55:25;100028.77;;;9.85;67.83
50592;BME280;36548;50.506;30.834;2023-03-23T00:56:34;100032.33;;;9.86;67.84
50592;BME280;36548;50.506;30.834;2023-03-23T00:57:43;100027.92;;;9.85;68.01
50592;BME280;36548;50.506;30.834;2023-03-23T00:58:51;100022.56;;;9.85;68.09
50592;BME280;36548;50.506;30.834;2023-03-23T00:59:59;100022.56;;;9.85;67.98
50592;BME280;36548;50.506;30.834;2023-03-23T01:01:08;100024.39;;;9.84;68.02
50592;BME280;36548;50.506;30.834;2023-03-23T01:02:17;100018.15;;;9.84;67.84
50592;BME280;36548;50.506;30.834;2023-03-23T01:03:27;100025.24;;;9.85;67.90
50592;BME280;36548;50.506;30.834;2023-03-23T01:04:39;100024.50;;;9.83;67.87
50592;BME280;36548;50.506;30.834;2023-03-23T01:05:47;100015.58;;;9.82;67.92
50592;BME280;36548;50.506;30.834;2023-03-23T01:06:56;100010.21;;;9.82;67.85
50592;BME280;36548;50.506;30.834;2023-03-23T01:08:05;100017.41;;;9.82;67.88
50592;BME280;36548;50.506;30.834;2023-03-23T01:09:15;100006.58;;;9.83;67.78
50592;BME280;36548;50.506;30.834;2023-03-23T01:10:25;100004.95;;;9.81;67.73
50592;BME280;36548;50.506;30.834;2023-03-23T01:11:36;100017.51;;;9.80;67.93
50592;BME280;36548;50.506;30.834;2023-03-23T01:12:46;100012.25;;;9.79;67.95
50592;BME280;36548;50.506;30.834;2023-03-23T01:13:56;100012.25;;;9.79;67.93
50592;BME280;36548;50.506;30.834;2023-03-23T01:15:05;100015.88;;;9.78;68.02
50592;BME280;36548;50.506;30.834;2023-03-23T01:16:15;100015.88;;;9.78;68.01
50592;BME280;36548;50.506;30.834;2023-03-23T01:17:23;100020.36;;;9.77;67.96
50592;BME280;36548;50.506;30.834;2023-03-23T01:18:31;100006.11;;;9.77;67.95
50592;BME280;36548;50.506;30.834;2023-03-23T01:19:39;100008.80;;;9.77;68.05
50592;BME280;36548;50.506;30.834;2023-03-23T01:20:48;100008.80;;;9.77;67.97
50592;BME280;36548;50.506;30.834;2023-03-23T01:21:57;100006.96;;;9.77;67.91
50592;BME280;36548;50.506;30.834;2023-03-23T01:23:05;100004.39;;;9.76;67.93
50592;BME280;36548;50.506;30.834;2023-03-23T01:24:14;100002.58;;;9.76;67.93
50592;BME280;36548;50.506;30.834;2023-03-23T01:25:23;100006.96;;;9.77;67.80
50592;BME280;36548;50.506;30.834;2023-03-23T01:26:31;100002.48;;;9.78;67.54
50592;BME280;36548;50.506;30.834;2023-03-23T01:27:40;100000.01;;;9.75;67.59
50592;BME280;36548;50.506;30.834;2023-03-23T01:28:50;99997.40;;;9.73;67.56
50592;BME280;36548;50.506;30.834;2023-03-23T01:29:59;99997.50;;;9.71;67.56
50592;BME280;36548;50.506;30.834;2023-03-23T01:31:10;99999.44;;;9.69;67.61
50592;BME280;36548;50.506;30.834;2023-03-23T01:32:23;100000.39;;;9.68;67.65
50592;BME280;36548;50.506;30.834;2023-03-23T01:33:32;100002.42;;;9.65;67.57
50592;BME280;36548;50.506;30.834;2023-03-23T01:34:40;100000.80;;;9.62;67.84
50592;BME280;36548;50.506;30.834;2023-03-23T01:35:49;99990.08;;;9.62;67.77
50592;BME280;36548;50.506;30.834;2023-03-23T01:36:59;100000.91;;;9.61;67.85
50592;BME280;36548;50.506;30.834;2023-03-23T01:38:07;99995.61;;;9.59;67.93
50592;BME280;36548;50.506;30.834;2023-03-23T01:39:16;99989.41;;;9.59;67.97
50592;BME280;36548;50.506;30.834;2023-03-23T01:40:26;99993.81;;;9.60;67.95
50592;BME280;36548;50.506;30.834;2023-03-23T01:41:35;99998.30;;;9.59;67.84
50592;BME280;36548;50.506;30.834;2023-03-23T01:42:49;99997.45;;;9.59;67.88
50592;BME280;36548;50.506;30.834;2023-03-23T01:44:03;100003.76;;;9.58;67.85
50592;BME280;36548;50.506;30.834;2023-03-23T01:45:31;100002.06;;;9.57;67.88
50592;BME280;36548;50.506;30.834;2023-03-23T01:46:40;100010.09;;;9.57;67.85
50592;BME280;36548;50.506;30.834;2023-03-23T01:49:17;99996.98;;;9.52;67.92
50592;BME280;36548;50.506;30.834;2023-03-23T01:50:28;99999.66;;;9.52;67.97
50592;BME280;36548;50.506;30.834;2023-03-23T01:51:40;100001.59;;;9.50;68.15
50592;BME280;36548;50.506;30.834;2023-03-23T01:52:52;100003.31;;;9.51;68.05
50592;BME280;36548;50.506;30.834;2023-03-23T01:54:04;100004.16;;;9.51;68.01
50592;BME280;36548;50.506;30.834;2023-03-23T01:55:15;100006.00;;;9.51;68.00
50592;BME280;36548;50.506;30.834;2023-03-23T01:56:26;100001.48;;;9.51;67.98
50592;BME280;36548;50.506;30.834;2023-03-23T01:57:39;100005.11;;;9.50;67.99
50592;BME280;36548;50.506;30.834;2023-03-23T01:58:47;100003.48;;;9.48;67.91
50592;BME280;36548;50.506;30.834;2023-03-23T01:59:57;100007.16;;;9.47;67.97
50592;BME280;36548;50.506;30.834;2023-03-23T02:01:12;100001.86;;;9.45;68.10
50592;BME280;36548;50.506;30.834;2023-03-23T02:02:22;99999.96;;;9.47;68.20
50592;BME280;36548;50.506;30.834;2023-03-23T02:03:35;99991.08;;;9.47;68.03
50592;BME280;36548;50.506;30.834;2023-03-23T02:04:44;99992.77;;;9.48;67.96
50592;BME280;36548;50.506;30.834;2023-03-23T02:05:55;100003.48;;;9.48;67.92
50592;BME280;36548;50.506;30.834;2023-03-23T02:07:12;100001.02;;;9.45;67.94
50592;BME280;36548;50.506;30.834;2023-03-23T02:08:21;100000.06;;;9.46;67.93
50592;BME280;36548;50.506;30.834;2023-03-23T02:09:30;99999.28;;;9.44;67.93
50592;BME280;36548;50.506;30.834;2023-03-23T02:10:39;100004.64;;;9.44;68.03
50592;BME280;36548;50.506;30.834;2023-03-23T02:11:49;100003.02;;;9.41;67.91
50592;BME280;36548;50.506;30.834;2023-03-23T02:13:00;100001.42;;;9.38;68.01
50592;BME280;36548;50.506;30.834;2023-03-23T02:14:10;99996.91;;;9.39;68.31
50592;BME280;36548;50.506;30.834;2023-03-23T02:15:20;100002.38;;;9.37;68.12
50592;BME280;36548;50.506;30.834;2023-03-23T02:19:44;99997.78;;;9.25;68.35
50592;BME280;36548;50.506;30.834;2023-03-23T02:28:55;100002.95;;;9.43;68.85
50592;BME280;36548;50.506;30.834;2023-03-23T02:31:40;99998.91;;;9.50;68.37
50592;BME280;36548;50.506;30.834;2023-03-23T02:34:30;100001.48;;;9.51;68.28
50592;BME280;36548;50.506;30.834;2023-03-23T02:35:46;100005.89;;;9.52;68.04
50592;BME280;36548;50.506;30.834;2023-03-23T02:36:58;100001.59;;;9.50;68.11
50592;BME280;36548;50.506;30.834;2023-03-23T02:38:14;100006.06;;;9.49;68.14
50592;BME280;36548;50.506;30.834;2023-03-23T02:39:28;99998.91;;;9.50;68.07
50592;BME280;36548;50.506;30.834;2023-03-23T02:40:40;100009.63;;;9.50;68.02
50592;BME280;36548;50.506;30.834;2023-03-23T02:41:48;100003.31;;;9.51;67.99
50592;BME280;36548;50.506;30.834;2023-03-23T02:42:58;100003.31;;;9.51;68.05
50592;BME280;36548;50.506;30.834;2023-03-23T02:44:08;100000.64;;;9.51;68.11
50592;BME280;36548;50.506;30.834;2023-03-23T02:45:19;100006.84;;;9.51;68.10
50592;BME280;36548;50.506;30.834;2023-03-23T02:46:30;100009.42;;;9.53;67.94
50592;BME280;36548;50.506;30.834;2023-03-23T02:47:40;100007.59;;;9.53;68.00
50592;BME280;36548;50.506;30.834;2023-03-23T02:48:52;100007.69;;;9.52;68.03
50592;BME280;36548;50.506;30.834;2023-03-23T02:50:02;99997.86;;;9.52;67.95
50592;BME280;36548;50.506;30.834;2023-03-23T02:51:12;100003.11;;;9.54;67.85
50592;BME280;36548;50.506;30.834;2023-03-23T02:52:26;100006.74;;;9.53;67.87
50592;BME280;36548;50.506;30.834;2023-03-23T02:53:36;100006.00;;;9.51;67.95
50592;BME280;36548;50.506;30.834;2023-03-23T02:54:48;99996.23;;;9.50;68.07
50592;BME280;36548;50.506;30.834;2023-03-23T02:55:59;100005.02;;;9.52;68.03
50592;BME280;36548;50.506;30.834;2023-03-23T02:57:10;100008.58;;;9.52;68.04
50592;BME280;36548;50.506;30.834;2023-03-23T02:58:20;100001.28;;;9.54;68.00
50592;BME280;36548;50.506;30.834;2023-03-23T02:59:29;100002.23;;;9.53;67.91
50592;BME280;36548;50.506;30.834;2023-03-23T03:00:40;100008.47;;;9.54;67.83
50592;BME280;36548;50.506;30.834;2023-03-23T03:01:55;99999.55;;;9.53;67.85
50592;BME280;36548;50.506;30.834;2023-03-23T03:03:01;100003.96;;;9.54;67.82
50592;BME280;36548;50.506;30.834;2023-03-23T03:04:14;99996.02;;;9.53;67.76
50592;BME280;36548;50.506;30.834;2023-03-23T03:08:35;99997.66;;;9.55;67.72
50592;BME280;36548;50.506;30.834;2023-03-23T03:11:07;100003.86;;;9.56;67.55
50592;BME280;36548;50.506;30.834;2023-03-23T03:12:31;100001.18;;;9.56;67.46
50592;BME280;36548;50.506;30.834;2023-03-23T03:16:45;100003.96;;;9.54;67.54
50592;BME280;36548;50.506;30.834;2023-03-23T03:17:58;100003.96;;;9.54;67.50
50592;BME280;36548;50.506;30.834;2023-03-23T03:19:24;100007.31;;;9.58;67.28
50592;BME280;36548;50.506;30.834;2023-03-23T03:20:36;100007.31;;;9.58;67.37
50592;BME280;36548;50.506;30.834;2023-03-23T03:21:48;100008.27;;;9.57;67.21
50592;BME280;36548;50.506;30.834;2023-03-23T03:23:01;100010.20;;;9.55;67.30
50592;BME280;36548;50.506;30.834;2023-03-23T03:24:14;100010.20;;;9.55;67.22
50592;BME280;36548;50.506;30.834;2023-03-23T03:25:23;100011.05;;;9.55;67.22
50592;BME280;36548;50.506;30.834;2023-03-23T03:26:34;100013.83;;;9.54;67.25
50592;BME280;36548;50.506;30.834;2023-03-23T03:28:28;100010.27;;;9.53;67.32
50592;BME280;36548;50.506;30.834;2023-03-23T03:29:39;100015.62;;;9.53;67.21
50592;BME280;36548;50.506;30.834;2023-03-23T03:30:54;100013.16;;;9.50;67.33
50592;BME280;36548;50.506;30.834;2023-03-23T03:32:05;100017.87;;;9.47;67.44
50592;BME280;36548;50.506;30.834;2023-03-23T03:33:16;100007.16;;;9.47;67.42
50592;BME280;36548;50.506;30.834;2023-03-23T03:34:26;100011.62;;;9.46;67.46
50592;BME280;36548;50.506;30.834;2023-03-23T03:35:37;100011.52;;;9.48;67.39
50592;BME280;36548;50.506;30.834;2023-03-23T03:36:48;100009.73;;;9.48;67.25
50592;BME280;36548;50.506;30.834;2023-03-23T03:38:04;100013.36;;;9.47;67.29
50592;BME280;36548;50.506;30.834;2023-03-23T03:39:11;100008.95;;;9.46;67.30
50592;BME280;36548;50.506;30.834;2023-03-23T03:40:22;100008.10;;;9.46;67.47
50592;BME280;36548;50.506;30.834;2023-03-23T03:41:31;100006.37;;;9.45;67.61
50592;BME280;36548;50.506;30.834;2023-03-23T03:42:41;99999.11;;;9.47;67.57
50592;BME280;36548;50.506;30.834;2023-03-23T03:43:50;100005.22;;;9.49;67.47
50592;BME280;36548;50.506;30.834;2023-03-23T03:44:58;100001.59;;;9.50;67.45
50592;BME280;36548;50.506;30.834;2023-03-23T03:46:06;100003.22;;;9.52;67.14
50592;BME280;36548;50.506;30.834;2023-03-23T03:47:14;100000.53;;;9.52;67.02
50592;BME280;36548;50.506;30.834;2023-03-23T03:48:23;99993.45;;;9.51;66.95
50592;BME280;36548;50.506;30.834;2023-03-23T03:49:31;99992.67;;;9.49;66.85
50592;BME280;36548;50.506;30.834;2023-03-23T03:50:39;99991.92;;;9.47;66.93
50592;BME280;36548;50.506;30.834;2023-03-23T03:51:49;99991.14;;;9.45;66.97
50592;BME280;36548;50.506;30.834;2023-03-23T03:53:00;99992.23;;;9.43;67.07
50592;BME280;36548;50.506;30.834;2023-03-23T03:54:08;99995.86;;;9.42;67.17
50592;BME280;36548;50.506;30.834;2023-03-23T03:55:16;99993.28;;;9.40;67.08
50592;BME280;36548;50.506;30.834;2023-03-23T03:56:27;99991.55;;;9.39;67.05
50592;BME280;36548;50.506;30.834;2023-03-23T03:57:37;99994.33;;;9.37;67.19
50592;BME280;36548;50.506;30.834;2023-03-23T03:58:46;99993.48;;;9.37;67.14
50592;BME280;36548;50.506;30.834;2023-03-23T04:00:11;99990.98;;;9.34;67.38
50592;BME280;36548;50.506;30.834;2023-03-23T04:01:23;99989.18;;;9.34;67.38
50592;BME280;36548;50.506;30.834;2023-03-23T04:02:32;99989.18;;;9.34;67.46
50592;BME280;36548;50.506;30.834;2023-03-23T04:03:41;99990.98;;;9.34;67.42
50592;BME280;36548;50.506;30.834;2023-03-23T04:05:00;99990.02;;;9.35;67.41
50592;BME280;36548;50.506;30.834;2023-03-23T04:06:11;100002.27;;;9.39;67.30
50592;BME280;36548;50.506;30.834;2023-03-23T04:07:22;99989.83;;;9.38;67.36
50592;BME280;36548;50.506;30.834;2023-03-23T04:08:32;100001.31;;;9.40;67.40
50592;BME280;36548;50.506;30.834;2023-03-23T04:09:40;99997.66;;;9.41;67.59
50592;BME280;36548;50.506;30.834;2023-03-23T04:10:50;99989.55;;;9.43;67.59
50592;BME280;36548;50.506;30.834;2023-03-23T04:12:00;100000.16;;;9.44;67.61
50592;BME280;36548;50.506;30.834;2023-03-23T04:13:27;100008.20;;;9.44;67.30
50592;BME280;36548;50.506;30.834;2023-03-23T04:14:48;99996.61;;;9.44;67.24
50592;BME280;36548;50.506;30.834;2023-03-23T04:15:57;99995.76;;;9.43;67.07
50592;BME280;36548;50.506;30.834;2023-03-23T04:17:06;99999.39;;;9.42;67.06
50592;BME280;36548;50.506;30.834;2023-03-23T04:18:18;99996.91;;;9.39;67.17
50592;BME280;36548;50.506;30.834;2023-03-23T04:19:27;99996.23;;;9.35;67.29
50592;BME280;36548;50.506;30.834;2023-03-23T04:20:37;100000.64;;;9.36;67.37
50592;BME280;36548;50.506;30.834;2023-03-23T04:21:45;99999.79;;;9.36;67.45
50592;BME280;36548;50.506;30.834;2023-03-23T04:22:57;100001.52;;;9.37;67.63
50592;BME280;36548;50.506;30.834;2023-03-23T04:24:07;100001.42;;;9.38;67.53
50592;BME280;36548;50.506;30.834;2023-03-23T04:25:18;100004.84;;;9.41;67.52
50592;BME280;36548;50.506;30.834;2023-03-23T04:26:31;100004.54;;;9.45;67.50
50592;BME280;36548;50.506;30.834;2023-03-23T04:27:42;100003.96;;;9.54;67.83
50592;BME280;36548;50.506;30.834;2023-03-23T04:28:53;100009.02;;;9.59;67.33
50592;BME280;36548;50.506;30.834;2023-03-23T04:30:12;100001.06;;;9.72;67.57
50592;BME280;36548;50.506;30.834;2023-03-23T04:31:31;100003.48;;;9.89;67.62
50592;BME280;36548;50.506;30.834;2023-03-23T04:32:53;100006.23;;;10.02;67.02
50592;BME280;36548;50.506;30.834;2023-03-23T04:34:04;99992.86;;;10.15;66.51
50592;BME280;36548;50.506;30.834;2023-03-23T04:35:15;99996.90;;;10.35;66.79
50592;BME280;36548;50.506;30.834;2023-03-23T04:36:29;100006.62;;;10.51;65.88
50592;BME280;36548;50.506;30.834;2023-03-23T04:37:40;100007.18;;;10.82;65.83
50592;BME280;36548;50.506;30.834;2023-03-23T04:38:49;100009.55;;;11.12;65.85
50592;BME280;36548;50.506;30.834;2023-03-23T04:40:01;100000.66;;;11.49;65.41
50592;BME280;36548;50.506;30.834;2023-03-23T04:41:11;99999.70;;;11.87;64.13
50592;BME280;36548;50.506;30.834;2023-03-23T04:42:31;99999.53;;;12.25;63.08
50592;BME280;36548;50.506;30.834;2023-03-23T04:44:14;100000.65;;;12.70;62.14
50592;BME280;36548;50.506;30.834;2023-03-23T04:45:26;100001.81;;;13.24;60.31
50592;BME280;36548;50.506;30.834;2023-03-23T04:46:36;99996.06;;;13.62;59.16
50592;BME280;36548;50.506;30.834;2023-03-23T04:47:48;99996.85;;;13.97;58.05
50592;BME280;36548;50.506;30.834;2023-03-23T04:49:00;99995.87;;;14.30;57.01
50592;BME280;36548;50.506;30.834;2023-03-23T04:50:12;99988.62;;;14.63;56.09
50592;BME280;36548;50.506;30.834;2023-03-23T04:51:21;99992.10;;;14.96;55.25
50592;BME280;36548;50.506;30.834;2023-03-23T04:52:31;99994.30;;;15.12;53.87
50592;BME280;36548;50.506;30.834;2023-03-23T04:53:42;99992.23;;;15.26;53.32
50592;BME280;36548;50.506;30.834;2023-03-23T04:54:52;99991.11;;;15.28;52.46
50592;BME280;36548;50.506;30.834;2023-03-23T04:56:00;99984.79;;;15.18;51.84
50592;BME280;36548;50.506;30.834;2023-03-23T04:57:11;99991.55;;;15.03;52.01
50592;BME280;36548;50.506;30.834;2023-03-23T04:58:22;99991.85;;;14.78;51.88
50592;BME280;36548;50.506;30.834;2023-03-23T04:59:50;99988.31;;;14.45;51.92
50592;BME280;36548;50.506;30.834;2023-03-23T05:01:01;99987.25;;;14.04;52.69
50592;BME280;36548;50.506;30.834;2023-03-23T05:02:10;99996.66;;;13.77;53.10
50592;BME280;36548;50.506;30.834;2023-03-23T05:03:22;99988.72;;;13.53;53.66
50592;BME280;36548;50.506;30.834;2023-03-23T05:04:33;99991.28;;;13.32;54.07
50592;BME280;36548;50.506;30.834;2023-03-23T05:05:46;99993.11;;;13.09;54.58
50592;BME280;36548;50.506;30.834;2023-03-23T05:06:57;99997.14;;;12.92;55.27
50592;BME280;36548;50.506;30.834;2023-03-23T05:08:07;100000.19;;;12.76;55.75
50592;BME280;36548;50.506;30.834;2023-03-23T05:09:19;99994.78;;;12.65;56.34
50592;BME280;36548;50.506;30.834;2023-03-23T05:10:29;99998.45;;;12.64;56.97
50592;BME280;36548;50.506;30.834;2023-03-23T05:11:39;100005.31;;;12.68;57.61
50592;BME280;36548;50.506;30.834;2023-03-23T05:12:48;100001.16;;;12.75;57.70
50592;BME280;36548;50.506;30.834;2023-03-23T05:13:56;99998.09;;;12.79;57.24
50592;BME280;36548;50.506;30.834;2023-03-23T05:15:06;100001.03;;;12.76;56.70
50592;BME280;36548;50.506;30.834;2023-03-23T05:16:15;100003.47;;;12.68;56.87
50592;BME280;36548;50.506;30.834;2023-03-23T05:17:24;99999.78;;;12.58;57.12
50592;BME280;36548;50.506;30.834;2023-03-23T05:18:33;100004.26;;;12.46;57.35
50592;BME280;36548;50.506;30.834;2023-03-23T05:19:43;100002.38;;;12.35;57.70
50592;BME280;36548;50.506;30.834;2023-03-23T05:21:01;100002.09;;;12.27;58.02
50592;BME280;36548;50.506;30.834;2023-03-23T05:22:12;100000.73;;;12.21;58.26
50592;BME280;36548;50.506;30.834;2023-03-23T05:23:22;99996.67;;;12.16;58.36
50592;BME280;36548;50.506;30.834;2023-03-23T05:24:34;99999.95;;;12.08;58.43
50592;BME280;36548;50.506;30.834;2023-03-23T05:25:44;100009.55;;;11.99;58.78
50592;BME280;36548;50.506;30.834;2023-03-23T05:26:57;99996.78;;;11.90;58.98
50592;BME280;36548;50.506;30.834;2023-03-23T05:28:09;99998.41;;;11.80;59.24
50592;BME280;36548;50.506;30.834;2023-03-23T05:29:21;99998.00;;;11.73;59.79
50592;BME280;36548;50.506;30.834;2023-03-23T05:30:34;100000.30;;;11.66;59.61
50592;BME280;36548;50.506;30.834;2023-03-23T05:31:43;99999.13;;;11.57;60.17
50592;BME280;36548;50.506;30.834;2023-03-23T05:32:52;100003.13;;;11.52;60.24
50592;BME280;36548;50.506;30.834;2023-03-23T05:34:43;100008.08;;;11.45;60.38
50592;BME280;36548;50.506;30.834;2023-03-23T05:35:51;100007.69;;;11.38;60.84
50592;BME280;36548;50.506;30.834;2023-03-23T05:37:03;100011.67;;;11.33;61.04
50592;BME280;36548;50.506;30.834;2023-03-23T05:38:25;100008.56;;;11.26;61.17
50592;BME280;36548;50.506;30.834;2023-03-23T05:39:33;100006.19;;;11.21;61.18
50592;BME280;36548;50.506;30.834;2023-03-23T05:40:47;100009.32;;;11.15;61.55
50592;BME280;36548;50.506;30.834;2023-03-23T05:41:59;100009.66;;;11.11;61.91
50592;BME280;36548;50.506;30.834;2023-03-23T05:43:10;100008.16;;;11.06;62.02
50592;BME280;36548;50.506;30.834;2023-03-23T05:44:24;100010.30;;;11.01;62.11
50592;BME280;36548;50.506;30.834;2023-03-23T05:45:34;100016.84;;;10.97;62.43
50592;BME280;36548;50.506;30.834;2023-03-23T05:46:43;100005.45;;;10.94;62.46
50592;BME280;36548;50.506;30.834;2023-03-23T05:47:52;100009.31;;;10.89;62.71
50592;BME280;36548;50.506;30.834;2023-03-23T05:49:02;100012.22;;;10.86;62.95
50592;BME280;36548;50.506;30.834;2023-03-23T05:50:13;100010.71;;;10.82;63.18
50592;BME280;36548;50.506;30.834;2023-03-23T05:51:22;100011.67;;;10.81;63.41
50592;BME280;36548;50.506;30.834;2023-03-23T05:52:32;100010.94;;;10.79;63.72
50592;BME280;36548;50.506;30.834;2023-03-23T05:53:42;100018.98;;;10.79;63.46
50592;BME280;36548;50.506;30.834;2023-03-23T05:54:53;100009.42;;;10.75;64.04
50592;BME280;36548;50.506;30.834;2023-03-23T05:56:03;100013.84;;;10.76;64.32
50592;BME280;36548;50.506;30.834;2023-03-23T05:58:00;100009.31;;;10.77;64.18
50592;BME280;36548;50.506;30.834;2023-03-23T05:59:10;100011.16;;;10.76;64.25
50592;BME280;36548;50.506;30.834;2023-03-23T06:00:20;100017.48;;;10.75;64.46
50592;BME280;36548;50.506;30.834;2023-03-23T06:01:33;100010.38;;;10.74;64.51
50592;BME280;36548;50.506;30.834;2023-03-23T06:02:41;100013.18;;;10.72;64.79
50592;BME280;36548;50.506;30.834;2023-03-23T06:03:55;100015.02;;;10.72;64.87
50592;BME280;36548;50.506;30.834;2023-03-23T06:05:09;100020.38;;;10.72;65.00
50592;BME280;36548;50.506;30.834;2023-03-23T06:06:20;100013.18;;;10.72;64.97
50592;BME280;36548;50.506;30.834;2023-03-23T06:07:30;100015.12;;;10.70;65.00
50592;BME280;36548;50.506;30.834;2023-03-23T06:08:40;100015.23;;;10.69;65.26
50592;BME280;36548;50.506;30.834;2023-03-23T06:09:48;100012.44;;;10.70;65.40
50592;BME280;36548;50.506;30.834;2023-03-23T06:11:21;100012.44;;;10.70;65.08
50592;BME280;36548;50.506;30.834;2023-03-23T06:12:31;100012.55;;;10.69;65.37
50592;BME280;36548;50.506;30.834;2023-03-23T06:13:47;100022.41;;;10.68;65.46
50592;BME280;36548;50.506;30.834;2023-03-23T06:14:56;100016.19;;;10.68;65.91
50592;BME280;36548;50.506;30.834;2023-03-23T06:16:07;100012.55;;;10.69;65.83
50592;BME280;36548;50.506;30.834;2023-03-23T06:17:33;100019.61;;;10.70;66.19
50592;BME280;36548;50.506;30.834;2023-03-23T06:18:41;100022.95;;;10.73;66.51
50592;BME280;36548;50.506;30.834;2023-03-23T06:20:42;100021.78;;;10.78;66.34
50592;BME280;36548;50.506;30.834;2023-03-23T06:21:57;100019.65;;;10.83;65.91
50592;BME280;36548;50.506;30.834;2023-03-23T06:23:50;100023.18;;;10.83;65.83
50592;BME280;36548;50.506;30.834;2023-03-23T06:25:00;100028.44;;;10.85;66.04
50592;BME280;36548;50.506;30.834;2023-03-23T06:26:11;100018.47;;;10.87;66.10
50592;BME280;36548;50.506;30.834;2023-03-23T06:27:23;100021.05;;;10.88;66.43
50592;BME280;36548;50.506;30.834;2023-03-23T06:28:33;100021.78;;;10.90;66.42
50592;BME280;36548;50.506;30.834;2023-03-23T06:29:41;100028.77;;;10.93;66.55
50592;BME280;36548;50.506;30.834;2023-03-23T06:30:51;100024.91;;;10.97;66.53
50592;BME280;36548;50.506;30.834;2023-03-23T06:32:02;100032.85;;;10.99;66.56
50592;BME280;36548;50.506;30.834;2023-03-23T06:33:11;100022.88;;;11.01;66.49
50592;BME280;36548;50.506;30.834;2023-03-23T06:35:17;100023.73;;;11.01;66.81
50592;BME280;36548;50.506;30.834;2023-03-23T06:36:29;100031.03;;;11.12;66.98
50592;BME280;36548;50.506;30.834;2023-03-23T06:37:52;100027.16;;;11.16;66.99
50592;BME280;36548;50.506;30.834;2023-03-23T06:39:21;100027.67;;;11.21;66.66